NCAR-RAP Real-Time Weather Data

Output produced by METARs form (21 May 2019  11:18 UTC)
found at http://weather.rap.ucar.edu/surface/
 
RJTI 210700Z 19007KT 150V230 5000 -SHRA BR FEW003 BKN010 BKN020 21/20 Q1000
RJTI 210627Z 19008KT 140V230 5000 -SHRA BR FEW004 BKN015 BKN020 21/20 Q0999 RMK 1ST004 5CU015 7CU020 A2952
RJTI 210617Z 19008KT 160V230 5000 SHRA BR FEW004 BKN015 BKN020 21/20 Q0999 RMK 1ST004 5CU015 7CU020 A2952 2200E
RJTI 210609Z 18010KT 150V220 3200 SHRA BR FEW004 BKN015 BKN020 21/20 Q0999 RMK 1ST004 5CU015 7CU020 A2953
RJTI 210605Z 17011KT 150V220 2500 +SHRA BR FEW004 BKN015 BKN020 21/20 Q0999 RMK 2ST004 6CU015 7CU020 A2953
RJTI 210600Z 17012KT 1800 SHRA BR FEW004 BKN015 BKN020 21/20 Q0999
RJTI 210500Z 18011KT 2500 SHRA BR FEW004 BKN010 BKN015 21/20 Q1000
RJTI 210439Z 17015KT 1400 SHRA BR FEW008 BKN012 BKN020 21/20 Q1000 RMK 1ST008 6CU012 7CU020 A2954
RJTI 210436Z 17015KT 1400 +SHRA BR FEW008 BKN012 BKN020 21/20 Q1000 RMK 1ST008 6CU012 7CU020 A2954
RJTI 210431Z 17016KT 2500 +SHRA BR FEW008 BKN015 BKN020 21/20 Q1000 RMK 1ST008 6CU015 7CU020 A2954
RJTI 210425Z 17017KT 2500 FEW008 BKN015 BKN020 21/20 Q1000 RMK 1ST008 6CU015 7CU020 A2954
RJTI 210400Z 17016KT 4000 SHRA BR FEW008 BKN015 BKN025 21/20 Q1000
RJTI 210331Z 17017KT 4000 SHRA BR FEW008 BKN015 BKN025 21/20 Q1000 RMK 1ST008 6CU015 7CU025 A2954
RJTI 210315Z 17018KT 6000 -SHRA FEW008 BKN015 BKN025 21/20 Q1000 RMK 1ST008 6CU015 7CU025 A2954
RJTI 210300Z 16017KT 4500 SHRA BR FEW008 BKN015 BKN020 21/20 Q1000
RJTI 210243Z 17017KT 2500 SHRA BR FEW008 BKN012 BKN020 21/20 Q1000 RMK 1ST008 6CU012 7CU020 A2956
RJTI 210237Z 17017KT 4500 SHRA BR FEW008 BKN012 BKN020 21/20 Q1001 RMK 1ST008 6CU012 7CU020 A2957
RJTI 210226Z 17018KT 5000 -SHRA BR FEW008 BKN015 BKN020 21/20 Q1001 RMK 1ST008 6CU015 7CU020 A2956
RJTI 210200Z 17018G29KT 3000 SHRA BR FEW008 BKN015 BKN020 21/20 Q1001
RJTI 210123Z 16018G31KT 150V240 5000 SHRA BR FEW008 BKN015 BKN020 21/20 Q1001 RMK 1ST008 6CU015 7CU020 A2957
RJTI 210100Z 16021KT 6000 -SHRA FEW008 BKN015 BKN020 21/20 Q1000
RJTI 210014Z 15021KT 5000 -SHRA BR FEW008 BKN015 BKN020 20/20 Q1001 RMK 1ST008 6CU015 7CU020 A2957
RJTI 210000Z 15021KT 4500 -SHRA BR FEW008 BKN015 BKN020 20/20 Q1001
RJTI 202330Z 15022KT 3500 SHRA BR FEW008 BKN015 BKN020 20/20 Q1002
RJTI 200700Z 18007KT 150V220 9999 -SHRA FEW020 SCT035 BKN070 20/17 Q1014
RJTI 200600Z 15012KT 9999 FEW020 SCT040 BKN080 21/17 Q1014
RJTI 200500Z 16010KT 140V210 9999 FEW020 SCT030 BKN070 22/16 Q1015
RJTI 200400Z 19008KT 150V220 9999 VCSH FEW020 SCT040 BKN070 23/16 Q1015
RJTI 200300Z 17018G28KT 9999 -SHRA FEW015 BKN045 BKN070 20/15 Q1017
RJTI 200200Z 18008KT 140V230 9999 FEW020 BKN070 24/15 Q1016
RJTI 200100Z 15009KT 9999 FEW020 BKN040 BKN/// 23/16 Q1017
RJTI 200000Z 13007KT 9999 FEW020 SCT070 BKN/// 22/17 Q1017
RJTI 192330Z 13011KT 9999 FEW020 BKN070 BKN/// 21/16 Q1017
RJTI 190700Z 19008KT 160V240 9999 FEW030 SCT045 BKN060 22/13 Q1021
RJTI 190600Z 20011KT 9999 FEW030 SCT045 BKN070 22/13 Q1020
RJTI 190500Z 20007KT 150V280 9999 FEW030 SCT070 24/13 Q1021
RJTI 190400Z 15009KT 9999 FEW025 23/14 Q1021
RJTI 190300Z 15010KT 9999 FEW025 SCT050 22/14 Q1022
RJTI 190200Z 15014KT 9999 -SHRA FEW025 BKN040 21/15 Q1023
RJTI 190100Z 13007KT 9999 FEW030 23/16 Q1023
RJTI 190000Z 14005KT 110V190 9999 FEW030 SCT180 22/16 Q1023
RJTI 182330Z 12007KT 060V140 9999 FEW030 SCT180 22/16 Q1023